Time;durP1;ratioP1;P1;durP2;ratioP2;P2;SDS_P1;SDS_P2;PMS_P1;PMS_P2;Temp;Humidity;BMP_temperature;BMP_pressure;BME280_temperature;BME280_humidity;BME280_pressure;Samples;Min_cycle;Max_cycle;Signal;HPM_P1;HPM_P2
2021/06/11 00:00:18;;;;;;;4.68;3.10;;;;;;;;;;6259929;22;20058;-84
2021/06/11 00:02:44;;;;;;;4.00;2.97;;;;;;;;;;6258185;22;20027;-84
2021/06/11 00:05:14;;;;;;;3.03;2.67;;;;;;;;;;6260086;22;20024;-84
2021/06/11 00:07:41;;;;;;;5.00;3.40;;;;;;;;;;6267507;22;20034;-85
2021/06/11 00:10:09;;;;;;;4.85;3.53;;;;;;;;;;6290708;22;20038;-85
2021/06/11 00:12:40;;;;;;;5.13;3.40;;;;;;;;;;6287307;22;20061;-84
2021/06/11 00:15:07;;;;;;;4.13;2.95;;;;;;;;;;6285360;22;20038;-84
2021/06/11 00:17:34;;;;;;;6.15;3.47;;;;;;;;;;6285539;22;20250;-84
2021/06/11 00:20:21;;;;;;;3.25;2.70;;;;;;;;;;6259714;22;20063;-85
2021/06/11 00:22:47;;;;;;;6.90;3.00;;;;;;;;;;6259724;22;20023;-85
2021/06/11 00:25:16;;;;;;;5.00;2.63;;;;;;;;;;6286416;22;20031;-85
2021/06/11 00:27:43;;;;;;;4.00;2.95;;;;;;;;;;6264357;22;20105;-84
2021/06/11 00:30:16;;;;;;;6.20;3.47;;;;;;;;;;6264683;22;20050;-85
2021/06/11 00:32:43;;;;;;;8.55;3.95;;;;;;;;;;6265704;22;20089;-85
2021/06/11 00:35:09;;;;;;;7.90;4.22;;;;;;;;;;6293423;22;20027;-85
2021/06/11 00:41:08;;;;;;;5.72;4.50;;;;;;;;;;6291118;22;20022;-85
2021/06/11 00:43:34;;;;;;;12.80;5.38;;;;;;;;;;6262682;22;20027;-84
2021/06/11 00:46:01;;;;;;;9.85;4.88;;;;;;;;;;6287898;22;20069;-85
2021/06/11 00:48:27;;;;;;;10.50;6.38;;;;;;;;;;6261353;22;20027;-85
2021/06/11 00:50:54;;;;;;;12.45;6.40;;;;;;;;;;6260889;22;20027;-85
2021/06/11 00:53:20;;;;;;;10.60;6.88;;;;;;;;;;6260406;22;20398;-85
2021/06/11 00:58:46;;;;;;;15.27;7.80;;;;;;;;;;6287002;22;20019;-85
2021/06/11 01:01:13;;;;;;;13.23;7.13;;;;;;;;;;6259737;22;20024;-85
2021/06/11 01:03:46;;;;;;;14.98;7.30;;;;;;;;;;6260472;22;20024;-85
2021/06/11 01:06:13;;;;;;;10.85;7.10;;;;;;;;;;6286738;22;20321;-85
2021/06/11 01:08:40;;;;;;;11.52;7.32;;;;;;;;;;6265618;22;20046;-85
2021/06/11 01:11:09;;;;;;;12.30;8.27;;;;;;;;;;6294653;22;20036;-85
2021/06/11 01:13:35;;;;;;;12.07;8.57;;;;;;;;;;6265881;22;20032;-84
2021/06/11 01:16:02;;;;;;;10.10;7.82;;;;;;;;;;6288785;22;20054;-85
2021/06/11 01:18:32;;;;;;;14.70;8.20;;;;;;;;;;6264735;22;20309;-84
2021/06/11 01:20:58;;;;;;;15.65;6.95;;;;;;;;;;6297003;22;20023;-85
2021/06/11 01:23:40;;;;;;;10.63;7.20;;;;;;;;;;6270244;22;20047;-85
2021/06/11 01:26:43;;;;;;;12.23;8.13;;;;;;;;;;6267564;22;20286;-84
2021/06/11 01:29:13;;;;;;;11.73;7.07;;;;;;;;;;6263899;22;20075;-84
2021/06/11 01:31:40;;;;;;;13.02;6.40;;;;;;;;;;6260907;22;20069;-85
2021/06/11 01:34:15;;;;;;;10.60;7.43;;;;;;;;;;6262862;22;20046;-85
2021/06/11 01:36:53;;;;;;;10.40;7.80;;;;;;;;;;6293548;22;20023;-84
2021/06/11 01:39:21;;;;;;;10.70;7.82;;;;;;;;;;6294205;22;20027;-84
2021/06/11 01:41:49;;;;;;;12.25;8.32;;;;;;;;;;6268484;22;20541;-85
2021/06/11 01:44:16;;;;;;;13.95;8.10;;;;;;;;;;6262235;22;20024;-84
2021/06/11 01:46:47;;;;;;;14.32;9.43;;;;;;;;;;6301532;22;20031;-84
2021/06/11 01:49:15;;;;;;;10.15;8.45;;;;;;;;;;6277574;22;20027;-83
2021/06/11 01:51:43;;;;;;;16.08;9.85;;;;;;;;;;6265518;22;20062;-85
2021/06/11 01:54:11;;;;;;;15.23;9.25;;;;;;;;;;6289580;22;20024;-84
2021/06/11 01:56:38;;;;;;;12.30;9.15;;;;;;;;;;6287804;22;20023;-84
2021/06/11 01:59:05;;;;;;;16.88;10.82;;;;;;;;;;6289306;22;20031;-84
2021/06/11 02:01:44;;;;;;;19.00;11.15;;;;;;;;;;6299260;22;20023;-84
2021/06/11 02:04:11;;;;;;;18.67;11.50;;;;;;;;;;6298931;22;20024;-84
2021/06/11 02:06:40;;;;;;;13.93;10.88;;;;;;;;;;6295774;22;20026;-84
2021/06/11 02:09:23;;;;;;;14.30;11.07;;;;;;;;;;6264395;22;20027;-85
2021/06/11 02:11:50;;;;;;;14.63;11.35;;;;;;;;;;6296121;22;20081;-84
2021/06/11 02:14:17;;;;;;;15.48;11.10;;;;;;;;;;6272731;22;20031;-84
2021/06/11 02:16:44;;;;;;;16.52;11.95;;;;;;;;;;6292997;22;20054;-84
2021/06/11 02:19:12;;;;;;;19.27;13.77;;;;;;;;;;6290907;22;20024;-84
2021/06/11 02:21:39;;;;;;;19.55;14.48;;;;;;;;;;6289397;22;20027;-84
2021/06/11 02:24:07;;;;;;;20.90;13.63;;;;;;;;;;6286996;22;20024;-84
2021/06/11 02:26:34;;;;;;;17.75;13.38;;;;;;;;;;6287725;22;20027;-83
2021/06/11 02:29:02;;;;;;;21.88;14.55;;;;;;;;;;6263026;22;20020;-84
2021/06/11 02:31:34;;;;;;;21.75;15.20;;;;;;;;;;6289030;22;20027;-83
2021/06/11 02:34:04;;;;;;;21.15;16.17;;;;;;;;;;6287580;22;20122;-84
2021/06/11 02:36:33;;;;;;;22.75;16.50;;;;;;;;;;6287351;22;20027;-84
2021/06/11 02:39:00;;;;;;;25.05;17.75;;;;;;;;;;6287680;22;20023;-85
2021/06/11 02:41:31;;;;;;;22.33;17.75;;;;;;;;;;6287926;22;20024;-84
2021/06/11 02:44:11;;;;;;;22.80;17.42;;;;;;;;;;6261205;22;20034;-84
2021/06/11 02:46:40;;;;;;;23.92;17.13;;;;;;;;;;6261509;22;20274;-85
2021/06/11 02:49:13;;;;;;;22.60;14.93;;;;;;;;;;6261384;22;20101;-85
2021/06/11 02:51:50;;;;;;;24.15;17.20;;;;;;;;;;6288889;22;20028;-83
2021/06/11 02:54:20;;;;;;;25.48;15.43;;;;;;;;;;6294050;22;20023;-84
2021/06/11 02:56:48;;;;;;;21.38;15.85;;;;;;;;;;6289740;22;20019;-84
2021/06/11 02:59:35;;;;;;;23.63;15.88;;;;;;;;;;6262034;22;20028;-85
2021/06/11 03:02:06;;;;;;;22.02;14.88;;;;;;;;;;6283511;22;20050;-84
2021/06/11 03:04:35;;;;;;;21.17;15.40;;;;;;;;;;6285358;22;20090;-84
2021/06/11 03:07:21;;;;;;;18.83;14.50;;;;;;;;;;6286349;22;20328;-84
2021/06/11 03:09:48;;;;;;;17.13;13.73;;;;;;;;;;6287831;22;20024;-85
2021/06/11 03:12:16;;;;;;;20.75;15.18;;;;;;;;;;6261066;22;20118;-85
2021/06/11 03:14:47;;;;;;;22.13;15.93;;;;;;;;;;6287463;22;20397;-84
2021/06/11 03:17:16;;;;;;;20.10;15.68;;;;;;;;;;6287099;22;20020;-84
2021/06/11 03:19:46;;;;;;;25.58;19.73;;;;;;;;;;6259864;22;20409;-84
2021/06/11 03:22:14;;;;;;;24.63;18.85;;;;;;;;;;6285326;22;20023;-85
2021/06/11 03:25:11;;;;;;;25.00;18.48;;;;;;;;;;6258558;22;20098;-85
2021/06/11 03:27:41;;;;;;;31.17;21.13;;;;;;;;;;6286051;22;20075;-85
2021/06/11 03:30:11;;;;;;;31.48;20.52;;;;;;;;;;6287199;22;20032;-85
2021/06/11 03:32:55;;;;;;;36.50;24.48;;;;;;;;;;6286811;22;20031;-85
2021/06/11 03:35:24;;;;;;;31.58;22.85;;;;;;;;;;6285345;22;20360;-85
2021/06/11 03:37:53;;;;;;;32.13;21.75;;;;;;;;;;6285090;22;20027;-85
2021/06/11 03:40:54;;;;;;;32.92;23.52;;;;;;;;;;6260969;22;20008;-86
2021/06/11 03:43:21;;;;;;;37.72;24.30;;;;;;;;;;6284956;22;20094;-83
2021/06/11 03:45:48;;;;;;;31.20;22.92;;;;;;;;;;6284062;22;20024;-84
2021/06/11 03:48:41;;;;;;;29.25;21.88;;;;;;;;;;6284072;22;20034;-85
2021/06/11 03:51:08;;;;;;;32.75;22.08;;;;;;;;;;6285758;22;20047;-84
2021/06/11 03:53:36;;;;;;;30.55;22.80;;;;;;;;;;6258093;22;20019;-85
2021/06/11 03:56:04;;;;;;;37.33;24.90;;;;;;;;;;6283300;22;20179;-84
2021/06/11 03:58:59;;;;;;;31.08;22.35;;;;;;;;;;6256371;22;20400;-84
2021/06/11 04:01:28;;;;;;;32.45;22.98;;;;;;;;;;6255793;22;20124;-83
2021/06/11 04:03:56;;;;;;;28.80;20.88;;;;;;;;;;6257855;22;20027;-85
2021/06/11 04:07:00;;;;;;;29.02;19.77;;;;;;;;;;6282313;22;20377;-84
2021/06/11 04:09:29;;;;;;;25.23;19.40;;;;;;;;;;6257650;22;20019;-84
2021/06/11 04:12:01;;;;;;;25.40;18.75;;;;;;;;;;6256715;22;20085;-84
2021/06/11 04:14:36;;;;;;;26.77;18.13;;;;;;;;;;6283391;22;20016;-84
2021/06/11 04:17:04;;;;;;;26.73;16.83;;;;;;;;;;6285274;22;20077;-84
2021/06/11 04:19:39;;;;;;;21.02;16.55;;;;;;;;;;6258576;22;20024;-84
2021/06/11 04:22:06;;;;;;;20.90;15.93;;;;;;;;;;6285402;22;20089;-85
2021/06/11 04:24:37;;;;;;;17.90;14.18;;;;;;;;;;6258961;22;20050;-84
2021/06/11 04:27:04;;;;;;;18.67;14.93;;;;;;;;;;6257702;22;20036;-84
2021/06/11 04:29:32;;;;;;;21.27;14.23;;;;;;;;;;6283911;22;20023;-85
2021/06/11 04:31:59;;;;;;;17.35;13.55;;;;;;;;;;6282536;22;20039;-83
2021/06/11 04:34:35;;;;;;;17.02;11.73;;;;;;;;;;6256109;22;20050;-84
2021/06/11 04:37:01;;;;;;;;;;;;;;;;;;6281530;22;20171;-84
2021/06/11 04:39:28;;;;;;;19.92;13.43;;;;;;;;;;6285410;22;19969;-86
2021/06/11 04:42:06;;;;;;;20.48;13.48;;;;;;;;;;6281757;22;20352;-84
2021/06/11 04:44:33;;;;;;;21.65;12.98;;;;;;;;;;6282069;22;20081;-85
2021/06/11 04:46:59;;;;;;;22.60;13.70;;;;;;;;;;6281625;22;20030;-85
2021/06/11 04:49:26;;;;;;;17.65;13.68;;;;;;;;;;6280237;22;20027;-85
2021/06/11 04:51:53;;;;;;;17.45;13.15;;;;;;;;;;6280942;22;20034;-84
2021/06/11 04:54:19;;;;;;;17.52;13.10;;;;;;;;;;6281078;22;20027;-84
2021/06/11 05:00:24;;;;;;;14.88;12.32;;;;;;;;;;6279403;22;20026;-85
2021/06/11 05:02:51;;;;;;;16.92;12.55;;;;;;;;;;6253829;22;20011;-84
2021/06/11 05:05:17;;;;;;;19.10;13.32;;;;;;;;;;6258316;22;20050;-85
2021/06/11 05:07:44;;;;;;;15.68;12.70;;;;;;;;;;6258553;22;20381;-84
2021/06/11 05:10:15;;;;;;;15.85;11.63;;;;;;;;;;6267007;22;20080;-85
2021/06/11 05:12:41;;;;;;;16.88;12.07;;;;;;;;;;6271003;22;20035;-84
2021/06/11 05:15:08;;;;;;;18.27;12.70;;;;;;;;;;6289972;22;20054;-86
2021/06/11 05:17:35;;;;;;;17.25;12.57;;;;;;;;;;6255010;22;20030;-85
2021/06/11 05:20:02;;;;;;;18.95;13.60;;;;;;;;;;6279131;22;20047;-85
2021/06/11 05:22:30;;;;;;;18.00;13.50;;;;;;;;;;6257890;22;20290;-85
2021/06/11 05:24:59;;;;;;;22.00;15.00;;;;;;;;;;6282741;22;20024;-85
2021/06/11 05:27:26;;;;;;;20.55;15.38;;;;;;;;;;6282650;22;20161;-86
2021/06/11 05:29:52;;;;;;;19.20;13.60;;;;;;;;;;6280031;22;20142;-85
2021/06/11 05:32:19;;;;;;;19.30;14.10;;;;;;;;;;6276884;22;20034;-86
2021/06/11 05:35:05;;;;;;;18.27;13.30;;;;;;;;;;6275776;22;20027;-85
2021/06/11 05:37:31;;;;;;;21.30;13.82;;;;;;;;;;6279135;22;20026;-85
2021/06/11 05:39:58;;;;;;;16.75;11.32;;;;;;;;;;6278997;22;20023;-85
2021/06/11 05:42:30;;;;;;;13.70;10.73;;;;;;;;;;6284907;22;20036;-84
2021/06/11 05:44:57;;;;;;;14.75;9.18;;;;;;;;;;6254111;22;20035;-85
2021/06/11 05:47:25;;;;;;;12.65;8.57;;;;;;;;;;6281534;22;20263;-84
2021/06/11 05:49:55;;;;;;;12.40;8.20;;;;;;;;;;6280485;22;20029;-84
2021/06/11 05:52:22;;;;;;;10.73;8.63;;;;;;;;;;6277789;22;20182;-85
2021/06/11 05:54:49;;;;;;;13.27;8.77;;;;;;;;;;6259351;22;20031;-84
2021/06/11 05:57:15;;;;;;;14.85;11.77;;;;;;;;;;6252153;22;20027;-85
2021/06/11 05:59:42;;;;;;;13.10;10.18;;;;;;;;;;6250615;22;20023;-86
2021/06/11 06:02:08;;;;;;;20.77;11.50;;;;;;;;;;6276965;22;20023;-85
2021/06/11 06:04:35;;;;;;;13.10;9.55;;;;;;;;;;6252170;22;20244;-84
2021/06/11 06:07:05;;;;;;;12.15;8.38;;;;;;;;;;6252477;22;20027;-87
2021/06/11 06:09:31;;;;;;;9.55;7.68;;;;;;;;;;6284959;22;20023;-87
2021/06/11 06:11:58;;;;;;;11.50;8.02;;;;;;;;;;6254413;22;20130;-84
2021/06/11 06:14:25;;;;;;;17.00;8.43;;;;;;;;;;6254579;22;20031;-85
2021/06/11 06:16:54;;;;;;;11.45;7.43;;;;;;;;;;6252595;22;20028;-85
2021/06/11 06:19:21;;;;;;;10.48;7.53;;;;;;;;;;6255486;22;20027;-86
2021/06/11 06:21:48;;;;;;;7.57;4.63;;;;;;;;;;6258260;22;20043;-85
2021/06/11 06:24:27;;;;;;;14.10;3.97;;;;;;;;;;6259113;22;20028;-85
2021/06/11 06:26:53;;;;;;;7.72;4.30;;;;;;;;;;6281741;22;20227;-85
2021/06/11 06:29:20;;;;;;;5.88;3.50;;;;;;;;;;6255712;22;20077;-85
2021/06/11 06:31:47;;;;;;;4.25;2.85;;;;;;;;;;6251869;22;20228;-83
2021/06/11 06:34:14;;;;;;;2.92;2.60;;;;;;;;;;6255795;22;20066;-85
2021/06/11 06:36:41;;;;;;;4.40;2.50;;;;;;;;;;6286011;22;20075;-85
2021/06/11 06:39:08;;;;;;;4.28;2.60;;;;;;;;;;6286845;22;20227;-83
2021/06/11 06:41:36;;;;;;;5.15;2.80;;;;;;;;;;6259652;22;20077;-83
2021/06/11 06:44:03;;;;;;;5.78;2.78;;;;;;;;;;6258342;22;20196;-84
2021/06/11 06:46:32;;;;;;;3.75;2.90;;;;;;;;;;6283304;22;20027;-83
2021/06/11 06:49:02;;;;;;;6.00;3.00;;;;;;;;;;6284740;22;20182;-84
2021/06/11 06:51:31;;;;;;;5.50;3.17;;;;;;;;;;6281073;22;20039;-84
2021/06/11 06:53:59;;;;;;;6.38;3.10;;;;;;;;;;6281025;22;20034;-83
2021/06/11 06:56:29;;;;;;;6.22;3.63;;;;;;;;;;6250927;22;20038;-84
2021/06/11 06:58:59;;;;;;;7.00;2.83;;;;;;;;;;6277099;22;20023;-84
2021/06/11 07:01:26;;;;;;;6.05;3.50;;;;;;;;;;6251679;22;20041;-84
2021/06/11 07:04:12;;;;;;;8.68;4.03;;;;;;;;;;6253539;22;20028;-85
2021/06/11 07:06:39;;;;;;;10.55;4.20;;;;;;;;;;6253177;22;20023;-84
2021/06/11 07:09:08;;;;;;;7.47;3.72;;;;;;;;;;6252164;22;20050;-84
2021/06/11 07:11:35;;;;;;;8.23;3.50;;;;;;;;;;6276372;22;20409;-84
2021/06/11 07:14:01;;;;;;;9.65;4.18;;;;;;;;;;6250430;22;20401;-84
2021/06/11 07:16:28;;;;;;;13.13;3.53;;;;;;;;;;6253471;22;20023;-84
2021/06/11 07:19:13;;;;;;;7.95;2.95;;;;;;;;;;6277350;22;20020;-85
2021/06/11 07:21:39;;;;;;;7.53;4.20;;;;;;;;;;6249604;22;20020;-85
2021/06/11 07:24:08;;;;;;;7.68;3.60;;;;;;;;;;6270867;22;20020;-85
2021/06/11 07:26:36;;;;;;;5.10;3.60;;;;;;;;;;6274211;22;20403;-86
2021/06/11 07:29:03;;;;;;;4.13;2.78;;;;;;;;;;6250048;22;20023;-85
2021/06/11 07:31:30;;;;;;;2.67;2.25;;;;;;;;;;6277941;22;20024;-85
2021/06/11 07:34:00;;;;;;;5.80;2.92;;;;;;;;;;6253015;22;20050;-85
2021/06/11 07:36:27;;;;;;;3.65;3.00;;;;;;;;;;6281165;22;20541;-86
2021/06/11 07:38:54;;;;;;;4.43;3.00;;;;;;;;;;6289097;22;20038;-86
2021/06/11 07:41:30;;;;;;;6.03;3.42;;;;;;;;;;6254229;22;20059;-84
2021/06/11 07:43:56;;;;;;;4.60;3.78;;;;;;;;;;6251561;22;20042;-84
2021/06/11 07:46:23;;;;;;;6.68;4.18;;;;;;;;;;6253936;22;20180;-85
2021/06/11 07:49:18;;;;;;;11.90;4.78;;;;;;;;;;6249412;22;20027;-85
2021/06/11 07:51:45;;;;;;;10.65;3.92;;;;;;;;;;6244725;23;20028;-85
2021/06/11 07:54:11;;;;;;;7.13;4.20;;;;;;;;;;6246089;23;20115;-83
2021/06/11 07:56:48;;;;;;;5.97;3.42;;;;;;;;;;6245666;23;20508;-84
2021/06/11 07:59:15;;;;;;;5.05;3.95;;;;;;;;;;6242347;23;20028;-85
2021/06/11 08:01:42;;;;;;;5.05;3.15;;;;;;;;;;6241920;23;20171;-84
2021/06/11 08:04:09;;;;;;;4.93;3.88;;;;;;;;;;6217916;23;20422;-84
2021/06/11 08:06:36;;;;;;;4.07;3.40;;;;;;;;;;6216808;23;20330;-84
2021/06/11 08:09:02;;;;;;;7.15;2.85;;;;;;;;;;6217853;23;20024;-84
2021/06/11 08:11:29;;;;;;;5.57;3.08;;;;;;;;;;6218162;23;20071;-84
2021/06/11 08:14:01;;;;;;;3.53;2.90;;;;;;;;;;6244025;23;20032;-84
2021/06/11 08:16:37;;;;;;;5.03;2.78;;;;;;;;;;6243708;23;20024;-85
2021/06/11 08:19:04;;;;;;;2.67;1.90;;;;;;;;;;6244346;23;20051;-84
2021/06/11 08:21:36;;;;;;;3.80;2.30;;;;;;;;;;6244866;23;20379;-84
2021/06/11 08:24:03;;;;;;;6.70;2.83;;;;;;;;;;6222218;23;20070;-84
2021/06/11 08:26:29;;;;;;;4.28;3.03;;;;;;;;;;6243534;23;20024;-84
2021/06/11 08:29:07;;;;;;;5.15;3.15;;;;;;;;;;6228318;23;20047;-83
2021/06/11 08:31:34;;;;;;;4.13;2.75;;;;;;;;;;6223282;23;20078;-84
2021/06/11 08:34:01;;;;;;;3.60;2.72;;;;;;;;;;6221090;23;20051;-86
2021/06/11 08:36:53;;;;;;;4.68;2.47;;;;;;;;;;6231394;23;20048;-85
2021/06/11 08:39:20;;;;;;;3.53;2.75;;;;;;;;;;6236423;22;20012;-84
2021/06/11 08:41:46;;;;;;;4.03;2.92;;;;;;;;;;6248380;22;20074;-84
2021/06/11 08:44:18;;;;;;;4.03;3.38;;;;;;;;;;6220042;23;20032;-84
2021/06/11 08:46:45;;;;;;;6.88;3.25;;;;;;;;;;6219801;23;20028;-83
2021/06/11 08:49:12;;;;;;;3.10;2.60;;;;;;;;;;6246372;22;20047;-83
2021/06/11 08:51:38;;;;;;;4.80;2.65;;;;;;;;;;6276842;22;20016;-84
2021/06/11 08:54:05;;;;;;;8.77;3.17;;;;;;;;;;6278529;22;20099;-84
2021/06/11 08:56:32;;;;;;;3.95;2.67;;;;;;;;;;6278314;22;20094;-85
2021/06/11 08:58:58;;;;;;;4.25;2.50;;;;;;;;;;6255034;22;20047;-84
2021/06/11 09:01:25;;;;;;;6.43;2.92;;;;;;;;;;6254301;22;20261;-85
2021/06/11 09:03:52;;;;;;;3.95;2.80;;;;;;;;;;6253577;22;20027;-85
2021/06/11 09:06:19;;;;;;;4.03;3.00;;;;;;;;;;6282338;22;20215;-84
2021/06/11 09:08:51;;;;;;;4.68;3.00;;;;;;;;;;6253205;22;20019;-84
2021/06/11 09:11:32;;;;;;;5.20;3.53;;;;;;;;;;6259087;22;20404;-85
2021/06/11 09:14:00;;;;;;;3.53;2.70;;;;;;;;;;6273819;22;20050;-85
2021/06/11 09:16:28;;;;;;;3.30;2.63;;;;;;;;;;6278370;22;20027;-84
2021/06/11 09:18:55;;;;;;;7.20;2.72;;;;;;;;;;6274806;22;20081;-85
2021/06/11 09:21:47;;;;;;;3.13;2.10;;;;;;;;;;6248709;22;20023;-85
2021/06/11 09:24:25;;;;;;;4.72;2.95;;;;;;;;;;6249653;22;20020;-85
2021/06/11 09:26:58;;;;;;;7.13;4.00;;;;;;;;;;6249519;22;20078;-85
2021/06/11 09:29:29;;;;;;;4.55;2.63;;;;;;;;;;6248154;22;20310;-85
2021/06/11 09:36:02;;;;;;;6.28;2.75;;;;;;;;;;6276048;22;20015;-84
2021/06/11 09:38:30;;;;;;;4.03;2.63;;;;;;;;;;6147987;23;20415;-84
2021/06/11 09:41:03;;;;;;;3.38;2.20;;;;;;;;;;6150041;23;20432;-84
2021/06/11 09:43:31;;;;;;;4.13;2.35;;;;;;;;;;6213789;22;20027;-84
2021/06/11 09:46:09;;;;;;;3.60;2.15;;;;;;;;;;6245600;22;20113;-83
2021/06/11 09:48:40;;;;;;;3.75;2.53;;;;;;;;;;6247149;22;20071;-84
2021/06/11 09:51:15;;;;;;;3.45;1.98;;;;;;;;;;6246743;22;20024;-84
2021/06/11 09:53:41;;;;;;;6.93;3.15;;;;;;;;;;6246023;22;20031;-84
2021/06/11 09:56:20;;;;;;;5.80;2.38;;;;;;;;;;6246914;22;20287;-84
2021/06/11 09:58:47;;;;;;;6.57;2.35;;;;;;;;;;6247952;22;20024;-85
2021/06/11 10:01:15;;;;;;;3.28;1.50;;;;;;;;;;6272119;22;20027;-84
2021/06/11 10:03:45;;;;;;;3.38;2.50;;;;;;;;;;6269867;22;20023;-86
2021/06/11 10:06:14;;;;;;;5.70;2.47;;;;;;;;;;6245752;22;20208;-85
2021/06/11 10:09:07;;;;;;;5.95;3.35;;;;;;;;;;6275713;22;20019;-85
2021/06/11 10:11:33;;;;;;;4.00;2.55;;;;;;;;;;6273115;22;20396;-86
2021/06/11 10:14:03;;;;;;;3.55;2.00;;;;;;;;;;6276475;22;20024;-85
2021/06/11 10:16:30;;;;;;;4.68;2.05;;;;;;;;;;6281312;22;20027;-86
2021/06/11 10:19:02;;;;;;;5.68;2.50;;;;;;;;;;6256116;22;20027;-85
2021/06/11 10:21:42;;;;;;;3.03;2.08;;;;;;;;;;6247411;22;20337;-86
2021/06/11 10:24:10;;;;;;;7.85;2.85;;;;;;;;;;6245589;22;20023;-85
2021/06/11 10:26:37;;;;;;;4.30;2.88;;;;;;;;;;6271672;22;20012;-85
2021/06/11 10:29:03;;;;;;;3.75;2.08;;;;;;;;;;6269870;22;20140;-84
2021/06/11 10:31:35;;;;;;;6.55;1.88;;;;;;;;;;6269554;22;20413;-85
2021/06/11 10:34:02;;;;;;;6.60;2.08;;;;;;;;;;6271066;22;20375;-84
2021/06/11 10:36:30;;;;;;;5.13;2.00;;;;;;;;;;6269070;22;20340;-85
2021/06/11 10:38:58;;;;;;;5.50;2.67;;;;;;;;;;6272572;22;20023;-86
2021/06/11 10:41:25;;;;;;;3.83;2.30;;;;;;;;;;6273095;22;20145;-85
2021/06/11 10:43:54;;;;;;;6.80;2.88;;;;;;;;;;6249352;22;20030;-86
2021/06/11 10:46:26;;;;;;;4.43;2.17;;;;;;;;;;6278261;22;20163;-85
2021/06/11 10:49:05;;;;;;;5.13;2.08;;;;;;;;;;6241983;22;20175;-86
2021/06/11 10:51:36;;;;;;;4.85;1.45;;;;;;;;;;6246311;22;20327;-85
2021/06/11 10:54:18;;;;;;;6.70;1.38;;;;;;;;;;6245221;22;20028;-86
2021/06/11 11:00:28;;;;;;;4.15;1.70;;;;;;;;;;6279084;22;20108;-85
2021/06/11 11:02:57;;;;;;;6.32;2.25;;;;;;;;;;6258741;22;20020;-86
2021/06/11 11:09:17;;;;;;;2.92;1.88;;;;;;;;;;6281054;22;20056;-84
2021/06/11 11:11:59;;;;;;;2.13;1.50;;;;;;;;;;6272304;22;20071;-86
2021/06/11 11:14:36;;;;;;;6.22;2.08;;;;;;;;;;6256548;22;20429;-84
2021/06/11 11:17:12;;;;;;;3.17;2.20;;;;;;;;;;6275741;22;20074;-84
2021/06/11 11:19:46;;;;;;;4.82;1.73;;;;;;;;;;6273711;22;20203;-84
2021/06/11 11:22:30;;;;;;;2.58;1.40;;;;;;;;;;6272954;22;20036;-85
2021/06/11 11:25:06;;;;;;;1.98;1.55;;;;;;;;;;6252903;22;20023;-84
2021/06/11 11:27:34;;;;;;;5.28;1.42;;;;;;;;;;6279038;22;20019;-84
2021/06/11 11:30:10;;;;;;;3.05;1.58;;;;;;;;;;6254339;22;20082;-87
2021/06/11 11:32:43;;;;;;;3.63;1.70;;;;;;;;;;6247831;22;20035;-86
2021/06/11 11:35:19;;;;;;;4.95;2.13;;;;;;;;;;6273977;22;20442;-85
2021/06/11 11:38:02;;;;;;;2.35;1.58;;;;;;;;;;6248396;22;20381;-84
2021/06/11 11:40:29;;;;;;;1.88;1.10;;;;;;;;;;6251208;22;20102;-84
2021/06/11 11:43:08;;;;;;;3.35;1.42;;;;;;;;;;6251453;22;20297;-85
2021/06/11 11:45:37;;;;;;;2.28;1.20;;;;;;;;;;6245391;22;20023;-86
2021/06/11 11:48:06;;;;;;;1.98;1.23;;;;;;;;;;6250564;22;20024;-85
2021/06/11 11:50:35;;;;;;;3.33;1.45;;;;;;;;;;6248909;22;20089;-85
2021/06/11 11:53:12;;;;;;;4.95;0.93;;;;;;;;;;6251932;22;20027;-84
2021/06/11 11:55:39;;;;;;;2.42;1.27;;;;;;;;;;6279183;22;20032;-85
2021/06/11 11:58:24;;;;;;;2.30;1.08;;;;;;;;;;6276723;22;20428;-86
2021/06/11 12:01:10;;;;;;;1.83;0.90;;;;;;;;;;6279454;22;20079;-84
2021/06/11 12:03:37;;;;;;;1.30;0.60;;;;;;;;;;6260807;22;20028;-84
2021/06/11 12:06:06;;;;;;;3.38;0.70;;;;;;;;;;6290792;22;20017;-83
2021/06/11 12:08:32;;;;;;;2.47;0.60;;;;;;;;;;6257368;22;20142;-86
2021/06/11 12:11:02;;;;;;;3.60;0.73;;;;;;;;;;6278583;22;20038;-84
2021/06/11 12:13:34;;;;;;;0.77;0.60;;;;;;;;;;6281612;22;20081;-86
2021/06/11 12:16:05;;;;;;;2.38;0.70;;;;;;;;;;6256681;22;20038;-85
2021/06/11 12:18:35;;;;;;;0.73;0.60;;;;;;;;;;6285066;22;20038;-84
2021/06/11 12:21:15;;;;;;;1.30;0.70;;;;;;;;;;6279642;22;20030;-85
2021/06/11 12:24:08;;;;;;;1.77;0.82;;;;;;;;;;6257612;22;20433;-85
2021/06/11 12:26:36;;;;;;;2.88;0.70;;;;;;;;;;6256476;22;20150;-85
2021/06/11 12:29:05;;;;;;;4.28;0.75;;;;;;;;;;6254556;22;20027;-85
2021/06/11 12:31:49;;;;;;;1.55;0.68;;;;;;;;;;6258497;22;20071;-85
2021/06/11 12:34:17;;;;;;;6.78;1.05;;;;;;;;;;6282417;22;20051;-85
2021/06/11 12:36:51;;;;;;;0.80;0.60;;;;;;;;;;6260243;22;20091;-85
2021/06/11 12:42:45;;;;;;;1.08;0.70;;;;;;;;;;6280865;22;20015;-85
2021/06/11 12:45:15;;;;;;;3.25;0.70;;;;;;;;;;6250926;22;20024;-85
2021/06/11 12:47:42;;;;;;;1.27;0.52;;;;;;;;;;6249818;22;20047;-85
2021/06/11 12:50:13;;;;;;;1.85;0.75;;;;;;;;;;6252003;22;20321;-85
2021/06/11 12:52:39;;;;;;;3.22;1.02;;;;;;;;;;6253237;22;20036;-86
2021/06/11 12:55:10;;;;;;;1.58;0.70;;;;;;;;;;6254526;22;20027;-85
2021/06/11 12:57:38;;;;;;;0.98;0.75;;;;;;;;;;6253778;22;20176;-85
2021/06/11 13:00:06;;;;;;;2.35;0.60;;;;;;;;;;6278990;22;20023;-85
2021/06/11 13:02:52;;;;;;;1.35;0.60;;;;;;;;;;6257255;22;20023;-86
2021/06/11 13:05:27;;;;;;;1.73;0.75;;;;;;;;;;6256166;22;20444;-86
2021/06/11 13:08:38;;;;;;;4.63;0.80;;;;;;;;;;6265884;22;20008;-87
2021/06/11 13:11:05;;;;;;;2.67;0.55;;;;;;;;;;6270402;22;20542;-87
2021/06/11 13:13:32;;;;;;;1.98;1.08;;;;;;;;;;6245769;22;20059;-88
2021/06/11 13:15:59;;;;;;;0.90;0.60;;;;;;;;;;6275358;22;20031;-85
2021/06/11 13:18:28;;;;;;;2.63;0.85;;;;;;;;;;6269894;22;20307;-84
2021/06/11 13:21:00;;;;;;;4.38;0.80;;;;;;;;;;6268197;22;20036;-86
2021/06/11 13:23:28;;;;;;;3.70;0.85;;;;;;;;;;6241041;22;20016;-85
2021/06/11 13:25:55;;;;;;;5.10;0.70;;;;;;;;;;6240473;22;20023;-85
2021/06/11 13:28:27;;;;;;;1.23;0.88;;;;;;;;;;6242519;22;20232;-88
2021/06/11 13:30:54;;;;;;;2.17;0.60;;;;;;;;;;6268417;22;20254;-87
2021/06/11 13:33:27;;;;;;;2.97;0.70;;;;;;;;;;6268750;22;20266;-85
2021/06/11 13:36:08;;;;;;;1.50;0.80;;;;;;;;;;6269011;22;20028;-85
2021/06/11 13:38:59;;;;;;;5.07;0.70;;;;;;;;;;6247020;22;20264;-86
2021/06/11 13:41:30;;;;;;;1.42;0.88;;;;;;;;;;6249193;22;20023;-85
2021/06/11 13:44:02;;;;;;;5.30;0.90;;;;;;;;;;6279275;22;20023;-87
2021/06/11 13:46:36;;;;;;;1.42;0.82;;;;;;;;;;6253240;22;20031;-85
2021/06/11 13:49:03;;;;;;;5.70;0.70;;;;;;;;;;6255193;22;20012;-85
2021/06/11 13:51:30;;;;;;;3.60;1.00;;;;;;;;;;6278979;22;20041;-85
2021/06/11 13:53:58;;;;;;;2.65;0.90;;;;;;;;;;6252299;22;20111;-86
2021/06/11 13:56:26;;;;;;;2.15;1.23;;;;;;;;;;6253331;22;20305;-85
2021/06/11 13:58:57;;;;;;;1.17;0.80;;;;;;;;;;6256488;22;20070;-85
2021/06/11 14:01:24;;;;;;;1.42;0.77;;;;;;;;;;6247047;22;20015;-85
2021/06/11 14:04:09;;;;;;;3.35;0.90;;;;;;;;;;6277373;22;20034;-85
2021/06/11 14:06:36;;;;;;;1.92;0.95;;;;;;;;;;6248488;22;20011;-86
2021/06/11 14:09:03;;;;;;;3.00;1.00;;;;;;;;;;6272549;22;20024;-85
2021/06/11 14:11:48;;;;;;;3.85;1.10;;;;;;;;;;6275216;22;20093;-85
2021/06/11 14:14:17;;;;;;;3.35;1.10;;;;;;;;;;6279394;22;20215;-85
2021/06/11 14:16:44;;;;;;;1.92;1.00;;;;;;;;;;6222641;22;20451;-85
2021/06/11 14:19:14;;;;;;;1.67;0.98;;;;;;;;;;6246657;22;20118;-85
2021/06/11 14:21:54;;;;;;;6.43;1.75;;;;;;;;;;6271885;22;20446;-85
2021/06/11 14:24:23;;;;;;;2.35;0.90;;;;;;;;;;6272556;22;20034;-85
2021/06/11 14:26:50;;;;;;;1.50;0.80;;;;;;;;;;6273490;22;20016;-84
2021/06/11 14:29:17;;;;;;;3.88;1.02;;;;;;;;;;6248654;22;20261;-85
2021/06/11 14:31:52;;;;;;;5.13;1.83;;;;;;;;;;6249388;22;20031;-86
2021/06/11 14:34:19;;;;;;;3.92;1.08;;;;;;;;;;6275285;22;20032;-85
2021/06/11 14:36:46;;;;;;;1.60;1.10;;;;;;;;;;6278233;22;20023;-86
2021/06/11 14:39:13;;;;;;;1.27;0.80;;;;;;;;;;6277718;22;20023;-85
2021/06/11 14:41:39;;;;;;;2.78;1.08;;;;;;;;;;6245460;22;20055;-85
2021/06/11 14:44:18;;;;;;;5.88;1.20;;;;;;;;;;6274103;22;20408;-86
2021/06/11 14:46:45;;;;;;;3.45;0.90;;;;;;;;;;6252206;22;20055;-85
2021/06/11 14:49:12;;;;;;;2.20;1.20;;;;;;;;;;6250351;22;20106;-86
2021/06/11 14:51:40;;;;;;;2.55;1.00;;;;;;;;;;6252617;22;20031;-86
2021/06/11 14:54:07;;;;;;;1.67;0.90;;;;;;;;;;6277854;22;20024;-86
2021/06/11 14:56:46;;;;;;;2.78;1.10;;;;;;;;;;6250922;22;20114;-85
2021/06/11 14:59:13;;;;;;;2.80;1.20;;;;;;;;;;6252038;22;20060;-86
2021/06/11 15:01:55;;;;;;;2.92;1.00;;;;;;;;;;6251379;22;20031;-86
2021/06/11 15:04:22;;;;;;;2.97;1.20;;;;;;;;;;6252041;22;20035;-86
2021/06/11 15:06:52;;;;;;;2.15;1.40;;;;;;;;;;6250200;22;20101;-86
2021/06/11 15:09:19;;;;;;;3.28;1.35;;;;;;;;;;6278510;22;20034;-85
2021/06/11 15:12:04;;;;;;;3.45;1.30;;;;;;;;;;6253461;22;20070;-86
2021/06/11 15:14:31;;;;;;;2.30;1.38;;;;;;;;;;6255147;22;20028;-86
2021/06/11 15:16:57;;;;;;;3.50;1.50;;;;;;;;;;6252211;22;20023;-85
2021/06/11 15:19:53;;;;;;;2.53;1.83;;;;;;;;;;6271789;22;20157;-85
2021/06/11 15:22:20;;;;;;;5.75;1.58;;;;;;;;;;6246316;22;20046;-84